Terminal Aerodrome Forecast
Issued by NWS Grand Forks, ND

Home | Current Version | Previous Version | Text Only | Print | Product List | Glossary Off
Versions: 1 2 3 4 5 6 7 8 9 10 11 12 13 14

000
FTUS43 KFGF 270500
TAFFAR
TAF
KFAR 270520Z 2706/2806 30015KT P6SM BKN050
     FM271000 35019G27KT P6SM BKN025
     FM271700 35017KT P6SM BKN030
     FM280100 33009KT P6SM SCT050=

USA.gov is the U.S. government's official web portal to all federal, state and local government web resources and services.